Time;durP1;ratioP1;P1;durP2;ratioP2;P2;SDS_P1;SDS_P2;PMS_P1;PMS_P2;Temp;Humidity;BMP_temperature;BMP_pressure;BME280_temperature;BME280_humidity;BME280_pressure;Samples;Min_cycle;Max_cycle;Signal;HPM_P1;HPM_P2
2021/03/30 00:00:26;;;;;;;4.97;2.95;;;;;;;1.47;79.12;94470.94;2098252;28;20021;-83
2021/03/30 00:01:26;;;;;;;4.60;3.00;;;;;;;1.46;79.26;94472.78;2115022;28;20110;-83
2021/03/30 00:02:27;;;;;;;5.95;2.67;;;;;;;1.46;79.25;94477.31;2098401;28;20020;-84
2021/03/30 00:03:27;;;;;;;3.13;2.50;;;;;;;1.44;79.29;94482.88;2092314;28;20024;-81
2021/03/30 00:04:28;;;;;;;6.57;2.90;;;;;;;1.40;79.45;94471.44;2098200;28;20109;-83
2021/03/30 00:05:28;;;;;;;3.20;2.72;;;;;;;1.43;79.21;94475.31;2094589;28;20023;-82
2021/03/30 00:06:29;;;;;;;2.90;2.60;;;;;;;1.45;79.53;94475.75;2106620;28;20079;-83
2021/03/30 00:07:29;;;;;;;3.55;2.85;;;;;;;1.48;79.61;94480.38;2098429;28;20417;-83
2021/03/30 00:08:29;;;;;;;5.03;2.67;;;;;;;1.42;79.58;94469.28;2097971;28;20079;-82
2021/03/30 00:09:30;;;;;;;4.32;2.45;;;;;;;1.38;79.31;94473.63;2098149;28;20028;-82
2021/03/30 00:10:36;;;;;;;3.92;2.92;;;;;;;1.37;78.89;94474.75;2098120;28;20059;-82
2021/03/30 00:11:37;;;;;;;5.43;2.75;;;;;;;1.33;79.69;94479.13;2111230;27;20031;-83
2021/03/30 00:12:38;;;;;;;5.75;2.83;;;;;;;1.30;79.76;94469.22;2107330;28;20024;-83
2021/03/30 00:13:38;;;;;;;3.53;2.67;;;;;;;1.25;80.35;94479.94;2106640;28;20024;-83
2021/03/30 00:14:39;;;;;;;4.35;2.47;;;;;;;1.35;80.14;94474.28;2098307;28;20032;-83
2021/03/30 00:15:39;;;;;;;3.55;2.53;;;;;;;1.35;79.40;94473.50;2110385;28;20055;-84
2021/03/30 00:16:40;;;;;;;5.15;2.33;;;;;;;1.28;80.06;94466.16;2106554;28;20028;-83
2021/03/30 00:17:40;;;;;;;3.97;2.65;;;;;;;1.32;80.61;94471.50;2089877;28;20063;-84
2021/03/30 00:18:40;;;;;;;4.75;2.58;;;;;;;1.32;79.94;94467.03;2091484;28;20461;-82
2021/03/30 00:19:41;;;;;;;4.97;2.70;;;;;;;1.34;79.87;94461.44;2098271;28;20035;-83
2021/03/30 00:20:42;;;;;;;4.63;2.75;;;;;;;1.22;78.86;94473.44;2114489;28;20464;-83
2021/03/30 00:21:43;;;;;;;4.00;2.30;;;;;;;1.26;79.23;94470.94;2102182;28;20464;-84
2021/03/30 00:22:43;;;;;;;3.65;2.20;;;;;;;1.36;79.21;94470.56;2098098;28;20107;-84
2021/03/30 00:23:43;;;;;;;5.78;2.50;;;;;;;1.30;78.75;94469.22;2106543;28;20024;-82
2021/03/30 00:24:44;;;;;;;3.53;2.72;;;;;;;1.28;79.05;94466.16;2114785;28;20020;-84
2021/03/30 00:25:44;;;;;;;3.95;2.10;;;;;;;1.22;78.63;94473.44;2100960;28;20020;-82
2021/03/30 00:26:45;;;;;;;5.03;2.47;;;;;;;1.26;79.51;94463.81;2089913;28;20430;-82
2021/03/30 00:27:45;;;;;;;3.33;2.20;;;;;;;1.27;79.62;94459.31;2089914;28;20127;-82
2021/03/30 00:28:46;;;;;;;5.25;2.47;;;;;;;1.32;79.62;94463.63;2098289;28;20060;-84
2021/03/30 00:29:46;;;;;;;3.45;2.17;;;;;;;1.26;79.70;94460.41;2098818;28;20112;-83
2021/03/30 00:30:47;;;;;;;5.00;2.55;;;;;;;1.23;80.04;94466.34;2114731;28;20031;-84
2021/03/30 00:31:47;;;;;;;5.57;2.60;;;;;;;1.18;80.35;94466.53;2123292;27;20022;-83
2021/03/30 00:32:48;;;;;;;3.72;2.25;;;;;;;1.18;80.48;94458.63;2114147;28;20051;-82
2021/03/30 00:33:48;;;;;;;2.55;2.35;;;;;;;1.18;80.57;94463.88;2089660;28;20028;-83
2021/03/30 00:34:48;;;;;;;3.28;2.40;;;;;;;1.15;80.63;94472.44;2090979;28;20017;-83
2021/03/30 00:35:49;;;;;;;3.67;2.38;;;;;;;1.15;80.68;94460.06;2123282;27;20030;-82
2021/03/30 00:36:49;;;;;;;3.75;2.33;;;;;;;1.10;80.39;94470.78;2131772;27;20416;-82
2021/03/30 00:37:50;;;;;;;3.08;2.00;;;;;;;1.09;80.60;94455.28;2117965;27;20023;-82
2021/03/30 00:38:50;;;;;;;3.38;2.30;;;;;;;1.15;80.28;94460.06;2114876;28;20547;-83
2021/03/30 00:39:51;;;;;;;3.80;2.50;;;;;;;1.11;79.54;94459.16;2119718;27;20042;-83
2021/03/30 00:40:52;;;;;;;2.22;1.92;;;;;;;1.09;80.03;94460.56;2114733;28;20032;-82
2021/03/30 00:41:53;;;;;;;7.30;2.35;;;;;;;1.12;80.39;94459.91;2114739;28;20020;-83
2021/03/30 00:42:54;;;;;;;2.72;2.22;;;;;;;1.07;80.41;94462.75;2114768;28;20590;-83
2021/03/30 00:43:55;;;;;;;2.20;2.00;;;;;;;1.10;81.11;94467.34;2125307;27;20027;-82
2021/03/30 00:44:57;;;;;;;3.85;2.10;;;;;;;1.00;80.54;94456.13;2114417;28;20020;-81
2021/03/30 00:45:58;;;;;;;3.90;2.15;;;;;;;0.99;80.61;94456.47;2098175;28;20024;-82
2021/03/30 00:47:01;;;;;;;3.40;2.42;;;;;;;0.96;81.14;94460.50;2106194;28;20020;-82
2021/03/30 00:48:02;;;;;;;4.80;2.25;;;;;;;0.93;81.28;94458.53;2106572;28;20066;-82
2021/03/30 00:49:03;;;;;;;3.10;2.05;;;;;;;0.93;81.22;94458.53;2097880;28;20028;-82
2021/03/30 00:50:06;;;;;;;2.80;2.17;;;;;;;0.94;80.72;94459.28;2112960;28;20438;-83
2021/03/30 00:51:07;;;;;;;3.10;2.22;;;;;;;0.93;81.06;94452.50;2098767;28;20090;-82
2021/03/30 00:52:08;;;;;;;2.13;1.92;;;;;;;0.91;81.78;94459.91;2112248;28;20024;-81
2021/03/30 00:53:09;;;;;;;4.70;2.38;;;;;;;0.90;81.56;94459.16;2114643;28;20359;-83
2021/03/30 00:54:09;;;;;;;2.58;2.28;;;;;;;0.94;81.64;94457.41;2114625;28;20031;-82
2021/03/30 00:55:11;;;;;;;2.95;2.10;;;;;;;0.90;82.02;94461.78;2105856;28;20012;-83
2021/03/30 00:56:12;;;;;;;3.30;2.25;;;;;;;0.89;81.46;94468.16;2097842;28;20033;-81
2021/03/30 00:57:15;;;;;;;3.33;2.50;;;;;;;0.83;81.56;94461.50;2109866;27;20383;-83
2021/03/30 00:58:16;;;;;;;3.53;2.28;;;;;;;0.83;81.49;94460.75;2106595;28;20028;-83
2021/03/30 00:59:18;;;;;;;3.72;2.45;;;;;;;0.83;81.80;94466.78;2123396;27;20078;-83
2021/03/30 01:00:19;;;;;;;3.03;2.13;;;;;;;0.88;82.59;94471.88;2123082;27;20019;-81
2021/03/30 01:01:19;;;;;;;5.15;2.42;;;;;;;0.90;82.55;94469.69;2114545;28;20020;-82
2021/03/30 01:02:20;;;;;;;4.22;2.20;;;;;;;0.93;81.55;94468.28;2114363;28;20024;-83
2021/03/30 01:03:20;;;;;;;3.03;2.28;;;;;;;0.95;81.94;94464.22;2114558;28;20440;-82
2021/03/30 01:04:21;;;;;;;3.42;2.30;;;;;;;0.99;81.92;94462.50;2106075;28;20024;-84
2021/03/30 01:05:21;;;;;;;3.17;2.28;;;;;;;1.03;81.65;94462.63;2106237;28;20020;-81
2021/03/30 01:06:22;;;;;;;2.35;2.05;;;;;;;1.04;81.55;94464.16;2113467;28;20071;-82
2021/03/30 01:07:23;;;;;;;2.28;2.00;;;;;;;0.96;81.61;94457.84;2105879;28;20020;-84
2021/03/30 01:09:01;;;;;;;2.67;2.10;;;;;;;0.94;82.17;94464.56;2106955;28;20024;-84
2021/03/30 01:10:07;;;;;;;4.63;2.05;;;;;;;0.96;81.85;94459.72;2122701;27;20027;-83
2021/03/30 01:11:27;;;;;;;5.55;2.00;;;;;;;1.01;81.64;94467.44;2115245;27;20049;-81
2021/03/30 01:12:48;;;;;;;3.67;1.80;;;;;;;0.93;82.06;94461.16;2111248;27;20020;-82
2021/03/30 01:14:11;;;;;;;2.60;1.60;;;;;;;0.92;81.78;94458.81;2129111;27;20027;-82
2021/03/30 01:15:43;;;;;;;2.58;1.88;;;;;;;0.86;81.81;94460.13;2119216;27;20020;-82
2021/03/30 01:16:52;;;;;;;2.75;2.15;;;;;;;0.91;81.71;94460.69;2106201;28;20027;-82
2021/03/30 01:18:01;;;;;;;5.20;2.50;;;;;;;0.92;81.46;94459.63;2107180;28;20092;-83
2021/03/30 01:19:17;;;;;;;3.85;2.40;;;;;;;0.83;81.86;94458.88;2111909;27;20424;-84
2021/03/30 01:20:39;;;;;;;3.65;2.33;;;;;;;0.83;82.21;94453.63;2122842;27;20109;-82
2021/03/30 01:22:04;;;;;;;5.18;2.28;;;;;;;0.88;82.07;94458.72;2108915;28;20828;-82
2021/03/30 01:23:53;;;;;;;2.75;2.05;;;;;;;0.84;82.24;94457.81;2121096;27;20030;-82
2021/03/30 01:24:59;;;;;;;2.22;1.80;;;;;;;0.82;82.25;94451.31;2105779;28;20039;-82
2021/03/30 01:26:17;;;;;;;3.45;2.10;;;;;;;0.83;82.69;94453.63;2113217;27;20019;-84
2021/03/30 01:27:44;;;;;;;2.83;1.98;;;;;;;0.74;83.12;94452.91;2117081;27;20057;-83
2021/03/30 01:29:00;;;;;;;4.05;2.20;;;;;;;0.73;83.00;94457.41;2114349;28;20031;-83
2021/03/30 01:30:04;;;;;;;2.70;1.83;;;;;;;0.73;82.92;94452.13;2099558;28;20040;-83
2021/03/30 01:31:05;;;;;;;3.22;2.55;;;;;;;0.71;82.98;94453.56;2098547;28;20024;-82
2021/03/30 01:32:16;;;;;;;3.35;2.30;;;;;;;0.67;82.56;94453.44;2097210;28;20048;-83
2021/03/30 01:33:22;;;;;;;4.97;2.20;;;;;;;0.71;83.08;94450.94;2099639;27;20020;-82
2021/03/30 01:34:24;;;;;;;3.80;1.85;;;;;;;0.69;82.76;94453.88;2107079;28;20089;-84
2021/03/30 01:35:26;;;;;;;3.13;2.20;;;;;;;0.68;82.80;94449.69;2114608;27;20050;-81
2021/03/30 01:36:29;;;;;;;2.25;2.05;;;;;;;0.63;82.75;94452.53;2122953;27;20114;-83
2021/03/30 01:37:34;;;;;;;2.50;2.30;;;;;;;0.65;83.04;94449.56;2114459;28;20034;-82
2021/03/30 01:38:35;;;;;;;2.63;1.80;;;;;;;0.64;82.97;94451.44;2106958;28;20020;-83
2021/03/30 01:39:38;;;;;;;2.08;1.88;;;;;;;0.63;83.00;94451.75;2114367;28;20027;-83
2021/03/30 01:40:39;;;;;;;4.60;1.95;;;;;;;0.58;83.59;94444.06;2114665;28;20469;-83
2021/03/30 01:41:44;;;;;;;4.25;2.30;;;;;;;0.62;83.35;94445.72;2122923;27;20026;-83
2021/03/30 01:42:46;;;;;;;2.60;2.40;;;;;;;0.62;83.70;94443.09;2140427;27;20023;-83
2021/03/30 01:43:48;;;;;;;2.75;2.10;;;;;;;0.64;82.98;94448.03;2122819;27;20022;-82
2021/03/30 01:44:49;;;;;;;5.15;2.17;;;;;;;0.64;83.21;94448.03;2105969;28;20020;-83
2021/03/30 01:45:54;;;;;;;2.85;2.20;;;;;;;0.63;82.67;94441.22;2114496;27;20016;-83
2021/03/30 01:46:55;;;;;;;4.25;1.80;;;;;;;0.53;82.84;94445.03;2131285;27;20022;-81
2021/03/30 01:47:57;;;;;;;3.08;2.38;;;;;;;0.58;83.11;94436.94;2122745;27;20026;-83
2021/03/30 01:48:59;;;;;;;5.63;2.42;;;;;;;0.60;82.74;94440.00;2122743;27;20019;-82
2021/03/30 01:50:01;;;;;;;3.53;2.08;;;;;;;0.61;82.75;94436.28;2122823;27;20475;-81
2021/03/30 01:51:03;;;;;;;2.50;2.15;;;;;;;0.63;83.05;94439.38;2106163;28;20077;-82
2021/03/30 01:52:04;;;;;;;3.60;2.20;;;;;;;0.62;83.00;94442.34;2114248;28;20024;-81
2021/03/30 01:53:05;;;;;;;3.85;2.42;;;;;;;0.59;82.87;94435.06;2108032;28;20024;-81
2021/03/30 01:54:08;;;;;;;3.35;2.20;;;;;;;0.54;83.51;94443.16;2118184;27;20026;-82
2021/03/30 01:55:12;;;;;;;3.78;2.03;;;;;;;0.50;83.42;94437.75;2116035;27;20500;-83
2021/03/30 01:56:14;;;;;;;3.50;2.30;;;;;;;0.42;83.53;94431.44;2099754;28;20095;-82
2021/03/30 01:57:19;;;;;;;4.28;2.53;;;;;;;0.46;83.52;94436.84;2089505;28;20029;-83
2021/03/30 01:58:21;;;;;;;4.32;2.30;;;;;;;0.44;83.79;94434.53;2090012;28;20067;-82
2021/03/30 01:59:22;;;;;;;2.88;2.05;;;;;;;0.45;84.28;94436.06;2105476;28;20043;-83
2021/03/30 02:00:28;;;;;;;2.30;2.00;;;;;;;0.41;85.32;94434.41;2114293;27;20071;-83
2021/03/30 02:01:30;;;;;;;3.60;1.90;;;;;;;0.41;84.45;94437.81;2122477;27;20474;-82
2021/03/30 02:04:14;;;;;;;4.95;1.85;;;;;;;0.39;84.21;94433.94;2139355;27;20169;-82
2021/03/30 02:05:17;;;;;;;2.78;2.15;;;;;;;0.42;83.67;94428.81;2121662;28;20039;-83
2021/03/30 02:06:18;;;;;;;2.78;2.45;;;;;;;0.40;84.73;94435.50;2121693;27;20027;-83
2021/03/30 02:07:20;;;;;;;4.97;1.92;;;;;;;0.36;83.74;94432.72;2112946;28;20019;-84
2021/03/30 02:08:24;;;;;;;6.25;2.10;;;;;;;0.42;83.97;94433.31;2121711;27;20388;-83
2021/03/30 02:09:33;;;;;;;2.95;2.38;;;;;;;0.38;83.30;94429.78;2121772;27;20399;-84
2021/03/30 02:11:51;;;;;;;5.35;1.95;;;;;;;0.32;84.76;94434.44;2121764;28;20034;-84
2021/03/30 02:12:52;;;;;;;3.88;2.40;;;;;;;0.36;84.45;94431.97;2121468;28;20361;-83
2021/03/30 02:13:56;;;;;;;3.55;2.40;;;;;;;0.35;83.72;94430.41;2116866;28;20159;-82
2021/03/30 02:14:57;;;;;;;4.35;2.10;;;;;;;0.32;83.49;94429.19;2113425;28;20080;-83
2021/03/30 02:16:02;;;;;;;3.88;2.22;;;;;;;0.36;83.41;94432.72;2104619;28;20082;-84
2021/03/30 02:17:26;;;;;;;5.15;2.25;;;;;;;0.34;83.02;94429.63;2114310;27;20408;-83
2021/03/30 02:18:32;;;;;;;2.05;1.85;;;;;;;0.35;83.11;94431.19;2116044;28;20132;-82
2021/03/30 02:19:44;;;;;;;3.60;2.15;;;;;;;0.39;83.30;94428.69;2114422;27;20023;-83
2021/03/30 02:20:50;;;;;;;3.70;2.00;;;;;;;0.33;83.08;94425.47;2113856;28;20032;-82
2021/03/30 02:22:03;;;;;;;4.05;2.03;;;;;;;0.39;83.25;94432.06;2113768;28;20063;-84
2021/03/30 02:23:08;;;;;;;2.70;2.00;;;;;;;0.33;83.56;94422.06;2114339;28;20026;-83
2021/03/30 02:24:11;;;;;;;4.85;2.30;;;;;;;0.35;83.83;94420.69;2113199;28;20035;-82
2021/03/30 02:25:12;;;;;;;3.72;2.50;;;;;;;0.36;83.65;94422.22;2113459;27;20073;-83
2021/03/30 02:26:15;;;;;;;2.92;2.40;;;;;;;0.33;83.75;94422.06;2112913;28;20069;-84
2021/03/30 02:27:15;;;;;;;2.90;2.28;;;;;;;0.39;83.51;94426.03;2105130;28;20511;-84
2021/03/30 02:28:20;;;;;;;2.95;2.05;;;;;;;0.33;83.14;94420.22;2112688;28;20019;-83
2021/03/30 02:29:24;;;;;;;3.75;2.20;;;;;;;0.38;83.63;94417.41;2113426;28;20024;-83
2021/03/30 02:30:26;;;;;;;2.83;2.00;;;;;;;0.33;84.04;94420.22;2113625;27;20653;-83
2021/03/30 02:31:30;;;;;;;3.90;2.10;;;;;;;0.24;83.12;94424.75;2113034;28;20035;-83
2021/03/30 02:32:32;;;;;;;2.35;2.15;;;;;;;0.31;84.30;94419.78;2105381;28;20027;-83
2021/03/30 02:33:34;;;;;;;2.60;2.30;;;;;;;0.28;84.59;94419.63;2104830;28;20017;-82
2021/03/30 02:34:37;;;;;;;4.20;2.03;;;;;;;0.22;85.12;94419.03;2121425;27;20015;-83
2021/03/30 02:35:38;;;;;;;3.00;2.30;;;;;;;0.22;85.35;94421.66;2113099;28;20030;-82
2021/03/30 02:36:41;;;;;;;4.65;2.00;;;;;;;0.19;85.68;94417.81;2104562;28;20030;-82
2021/03/30 02:37:43;;;;;;;2.80;2.10;;;;;;;0.16;85.89;94415.03;2113135;27;20031;-83
2021/03/30 02:38:44;;;;;;;2.38;2.00;;;;;;;0.20;85.60;94415.94;2112970;28;20113;-83
2021/03/30 02:39:45;;;;;;;4.45;2.17;;;;;;;0.21;85.23;94417.50;2112866;28;20035;-84
2021/03/30 02:40:50;;;;;;;4.30;2.45;;;;;;;0.20;85.36;94415.94;2112784;28;20038;-83
2021/03/30 02:41:52;;;;;;;4.07;2.22;;;;;;;0.17;85.50;94416.56;2110261;28;20016;-83
2021/03/30 02:42:54;;;;;;;3.65;2.50;;;;;;;0.15;85.58;94413.50;2112733;28;20495;-83
2021/03/30 02:43:58;;;;;;;4.22;2.15;;;;;;;0.20;85.19;94413.31;2110280;27;20483;-83
2021/03/30 02:45:01;;;;;;;5.15;2.10;;;;;;;0.12;84.59;94419.38;2113249;28;20040;-83
2021/03/30 02:46:03;;;;;;;4.93;2.33;;;;;;;0.13;85.43;94411.22;2104780;28;20024;-82
2021/03/30 02:47:04;;;;;;;3.97;2.33;;;;;;;0.13;85.59;94416.47;2121538;27;20106;-82
2021/03/30 02:48:07;;;;;;;4.70;2.40;;;;;;;0.13;85.59;94411.22;2112628;28;20039;-83
2021/03/30 02:49:11;;;;;;;2.13;1.90;;;;;;;0.15;85.91;94409.03;2104781;28;20028;-83
2021/03/30 02:50:12;;;;;;;3.90;2.20;;;;;;;0.11;84.90;94409.97;2113555;27;20024;-83
2021/03/30 02:51:14;;;;;;;3.42;2.22;;;;;;;0.08;85.40;94415.84;2121042;28;20023;-83
2021/03/30 02:52:15;;;;;;;2.15;1.92;;;;;;;0.14;85.24;94409.34;2112793;28;20027;-83
2021/03/30 02:53:16;;;;;;;3.63;2.05;;;;;;;0.13;85.19;94411.22;2112826;28;20500;-82
2021/03/30 02:54:18;;;;;;;3.15;2.30;;;;;;;0.12;85.78;94414.13;2112432;28;20031;-83
2021/03/30 02:55:18;;;;;;;5.35;2.13;;;;;;;0.11;86.33;94408.13;2098053;28;20020;-82
2021/03/30 02:56:20;;;;;;;4.88;2.55;;;;;;;0.07;85.86;94411.69;2089363;28;20037;-82
2021/03/30 02:57:23;;;;;;;4.43;2.20;;;;;;;0.08;85.89;94413.22;2104508;28;20086;-83
2021/03/30 02:58:23;;;;;;;3.35;2.30;;;;;;;0.16;85.46;94407.94;2112393;28;20028;-82
2021/03/30 02:59:25;;;;;;;2.30;2.10;;;;;;;0.05;85.89;94414.66;2103842;28;20483;-83
2021/03/30 03:00:26;;;;;;;3.30;2.00;;;;;;;0.05;86.15;94412.03;2104302;28;20025;-82
2021/03/30 03:01:26;;;;;;;7.25;2.20;;;;;;;-0.01;86.36;94413.28;2104149;28;20036;-83
2021/03/30 03:02:28;;;;;;;2.42;2.08;;;;;;;0.01;85.78;94411.09;2104336;28;20064;-84
2021/03/30 03:03:32;;;;;;;4.57;2.30;;;;;;;-0.02;85.88;94415.13;2104015;28;20028;-84
2021/03/30 03:04:34;;;;;;;2.53;1.90;;;;;;;0.01;86.28;94405.84;2096460;28;20082;-84
2021/03/30 03:05:35;;;;;;;3.55;1.95;;;;;;;-0.01;86.35;94414.03;2104261;28;20040;-84
2021/03/30 03:06:36;;;;;;;3.58;2.35;;;;;;;0.02;86.19;94414.50;2112186;28;20030;-81
2021/03/30 03:07:38;;;;;;;2.65;1.95;;;;;;;0.07;86.13;94409.06;2103937;28;20044;-83
2021/03/30 03:08:40;;;;;;;4.07;2.42;;;;;;;0.09;85.10;94412.13;2104200;28;20028;-84
2021/03/30 03:09:41;;;;;;;2.53;2.05;;;;;;;0.08;85.23;94414.00;2104214;28;20024;-83
2021/03/30 03:10:43;;;;;;;2.65;2.28;;;;;;;0.00;85.24;94420.09;2112588;28;20036;-82
2021/03/30 03:11:45;;;;;;;2.83;2.20;;;;;;;0.09;84.98;94407.66;2096000;28;20170;-83
2021/03/30 03:12:47;;;;;;;7.38;2.45;;;;;;;0.02;84.97;94409.25;2104407;28;20031;-82
2021/03/30 03:13:50;;;;;;;4.28;2.05;;;;;;;0.03;84.89;94421.28;2095982;28;20398;-83
2021/03/30 03:14:51;;;;;;;3.72;2.10;;;;;;;0.07;84.98;94416.94;2103499;28;20029;-82
2021/03/30 03:15:52;;;;;;;4.57;2.17;;;;;;;0.02;85.02;94417.13;2098275;28;20024;-84
2021/03/30 03:16:52;;;;;;;5.20;2.88;;;;;;;-0.09;85.14;94414.88;2098525;28;20027;-82
2021/03/30 03:17:54;;;;;;;3.92;2.00;;;;;;;-0.11;85.10;94414.41;2098319;28;20380;-83
2021/03/30 03:18:55;;;;;;;3.60;2.28;;;;;;;-0.12;85.79;94412.09;2090296;28;20090;-82
2021/03/30 03:19:56;;;;;;;3.58;2.15;;;;;;;-0.15;86.17;94416.09;2108162;28;20039;-83
2021/03/30 03:20:58;;;;;;;3.65;2.65;;;;;;;-0.16;86.41;94419.06;2106878;28;20036;-81
2021/03/30 03:21:59;;;;;;;2.92;2.00;;;;;;;-0.17;86.31;94422.78;2090200;28;20075;-83
2021/03/30 03:23:01;;;;;;;4.90;2.45;;;;;;;-0.12;86.60;94419.97;2096207;28;20526;-84
2021/03/30 03:24:02;;;;;;;3.38;2.10;;;;;;;-0.11;86.58;94414.41;2098144;28;20032;-83
2021/03/30 03:25:06;;;;;;;3.47;2.47;;;;;;;-0.08;86.22;94420.88;2082172;28;20025;-82
2021/03/30 03:26:07;;;;;;;3.35;2.10;;;;;;;-0.15;86.36;94416.09;2096716;28;20032;-83
2021/03/30 03:27:08;;;;;;;2.80;2.10;;;;;;;-0.15;85.98;94423.22;2098552;28;20024;-82
2021/03/30 03:28:08;;;;;;;2.78;1.83;;;;;;;-0.16;86.39;94414.56;2090137;28;20029;-82
2021/03/30 03:29:20;;;;;;;2.53;2.20;;;;;;;-0.14;86.01;94417.66;2089889;28;20039;-83
2021/03/30 03:30:23;;;;;;;3.00;2.10;;;;;;;-0.15;86.09;94416.09;2093216;28;20036;-82
2021/03/30 03:31:30;;;;;;;3.42;2.20;;;;;;;-0.17;85.72;94418.28;2090665;28;20039;-83
2021/03/30 03:32:31;;;;;;;3.50;2.30;;;;;;;-0.13;85.54;94416.59;2091765;28;20075;-84
2021/03/30 03:33:32;;;;;;;6.03;2.50;;;;;;;-0.11;85.47;94411.78;2098244;28;20036;-83
2021/03/30 03:34:32;;;;;;;5.72;2.35;;;;;;;-0.12;85.08;94412.84;2106423;28;20032;-83
2021/03/30 03:35:33;;;;;;;5.88;2.50;;;;;;;-0.19;85.29;94409.94;2098383;28;20374;-84
2021/03/30 03:36:40;;;;;;;6.55;3.10;;;;;;;-0.10;85.72;94410.69;2090219;28;20492;-84
2021/03/30 03:37:44;;;;;;;6.30;2.80;;;;;;;-0.17;86.07;94420.94;2099996;28;20382;-82
2021/03/30 03:38:44;;;;;;;5.00;2.75;;;;;;;-0.24;86.76;94422.50;2107116;28;20295;-84
2021/03/30 03:39:45;;;;;;;2.40;2.13;;;;;;;-0.23;87.04;94416.91;2106605;28;20024;-82
2021/03/30 03:40:45;;;;;;;2.80;2.17;;;;;;;-0.21;87.13;94414.00;2106730;28;20028;-83
2021/03/30 03:41:46;;;;;;;5.43;2.80;;;;;;;-0.19;86.62;94417.06;2106765;28;20072;-84
2021/03/30 03:42:47;;;;;;;5.65;2.60;;;;;;;-0.21;87.15;94414.75;2098375;28;20035;-83
2021/03/30 03:43:49;;;;;;;3.50;2.20;;;;;;;-0.15;86.66;94410.84;2089950;28;20068;-81
2021/03/30 03:44:49;;;;;;;2.58;2.38;;;;;;;-0.21;86.85;94416.63;2106841;28;20101;-82
2021/03/30 03:45:50;;;;;;;4.53;2.38;;;;;;;-0.20;86.79;94416.28;2106614;28;20475;-83
2021/03/30 03:46:50;;;;;;;6.28;2.30;;;;;;;-0.18;86.42;94411.47;2106958;28;20058;-84
2021/03/30 03:47:51;;;;;;;3.85;2.35;;;;;;;-0.25;85.05;94419.09;2115112;28;20027;-82
2021/03/30 03:48:52;;;;;;;3.75;2.42;;;;;;;-0.24;85.74;94410.13;2098178;28;20020;-84
2021/03/30 03:49:52;;;;;;;3.08;2.50;;;;;;;-0.16;85.76;94411.19;2098176;28;20123;-84
2021/03/30 03:50:57;;;;;;;4.07;2.60;;;;;;;-0.22;85.24;94413.22;2098320;28;20056;-83
2021/03/30 03:52:01;;;;;;;3.78;2.55;;;;;;;-0.24;86.19;94422.50;2091015;28;20024;-82
2021/03/30 03:53:03;;;;;;;3.33;2.47;;;;;;;-0.28;86.92;94412.59;2099251;28;20035;-83
2021/03/30 03:54:07;;;;;;;5.60;2.60;;;;;;;-0.28;87.15;94409.97;2106481;28;20388;-83
2021/03/30 03:55:11;;;;;;;5.55;2.35;;;;;;;-0.29;87.30;94412.94;2107082;28;20028;-84
2021/03/30 03:56:15;;;;;;;4.70;2.70;;;;;;;-0.27;87.25;94419.38;2092205;28;20035;-84
2021/03/30 03:57:21;;;;;;;4.20;2.65;;;;;;;-0.26;87.46;94420.97;2107675;27;20032;-84
2021/03/30 03:58:36;;;;;;;5.40;2.28;;;;;;;-0.23;87.43;94422.16;2115094;28;20088;-83
2021/03/30 03:59:39;;;;;;;3.08;2.63;;;;;;;-0.28;87.60;94422.34;2104208;28;20473;-83
2021/03/30 04:00:39;;;;;;;3.03;2.13;;;;;;;-0.27;87.61;94413.38;2090248;28;20082;-83
2021/03/30 04:02:23;;;;;;;3.28;2.20;;;;;;;-0.37;86.92;94414.50;2088323;28;20070;-84
2021/03/30 04:03:26;;;;;;;3.53;2.30;;;;;;;-0.31;87.37;94423.75;2086812;28;20029;-84
2021/03/30 04:04:35;;;;;;;3.15;1.95;;;;;;;-0.32;88.29;94421.44;2089901;28;20847;-83
2021/03/30 04:05:44;;;;;;;3.45;2.30;;;;;;;-0.34;87.69;94431.50;2096126;28;20085;-82
2021/03/30 04:06:50;;;;;;;2.58;2.25;;;;;;;-0.32;87.68;94418.81;2100514;28;20032;-83
2021/03/30 04:07:55;;;;;;;2.72;2.33;;;;;;;-0.30;87.71;94419.28;2106500;28;20442;-82
2021/03/30 04:08:56;;;;;;;6.65;2.33;;;;;;;-0.32;87.20;94429.31;2098679;28;20054;-82
2021/03/30 04:10:00;;;;;;;6.38;2.92;;;;;;;-0.34;87.34;94429.63;2097913;28;20032;-81
2021/03/30 04:11:04;;;;;;;3.13;2.10;;;;;;;-0.34;87.35;94415.72;2090270;28;20071;-84
2021/03/30 04:12:07;;;;;;;2.88;2.35;;;;;;;-0.36;86.95;94426.53;2090851;28;20025;-82
2021/03/30 04:13:08;;;;;;;3.17;2.40;;;;;;;-0.37;87.77;94421.59;2090009;28;20649;-83
2021/03/30 04:14:09;;;;;;;2.80;2.17;;;;;;;-0.38;87.05;94420.06;2096292;28;20063;-83
2021/03/30 04:15:10;;;;;;;6.40;2.50;;;;;;;-0.37;87.29;94425.00;2097827;28;20036;-84
2021/03/30 04:16:10;;;;;;;3.05;2.17;;;;;;;-0.40;88.11;94423.00;2089802;28;20083;-84
2021/03/30 04:17:17;;;;;;;3.78;2.55;;;;;;;-0.40;87.58;94422.22;2089851;28;20067;-83
2021/03/30 04:18:18;;;;;;;3.15;2.13;;;;;;;-0.38;87.78;94417.44;2088534;28;20078;-82
2021/03/30 04:19:18;;;;;;;2.92;2.15;;;;;;;-0.40;87.91;94422.22;2090911;28;20017;-82
2021/03/30 04:20:20;;;;;;;4.25;2.10;;;;;;;-0.39;88.19;94434.28;2089589;28;20401;-82
2021/03/30 04:21:31;;;;;;;4.85;2.55;;;;;;;-0.40;88.14;94420.34;2090147;28;20024;-84
2021/03/30 04:22:31;;;;;;;2.80;2.25;;;;;;;-0.40;88.07;94424.84;2096414;28;20085;-84
2021/03/30 04:23:33;;;;;;;2.58;2.38;;;;;;;-0.42;87.87;94425.16;2089554;28;20101;-84
2021/03/30 04:24:34;;;;;;;3.72;2.10;;;;;;;-0.43;87.66;94415.00;2089575;28;20699;-83
2021/03/30 04:25:34;;;;;;;5.68;2.40;;;;;;;-0.33;87.80;94417.25;2096578;28;20032;-83
2021/03/30 04:26:36;;;;;;;6.45;2.60;;;;;;;-0.34;86.95;94428.88;2095290;28;20075;-83
2021/03/30 04:27:37;;;;;;;5.22;3.65;;;;;;;-0.39;87.31;94424.56;2097679;28;20468;-83
2021/03/30 04:28:38;;;;;;;4.22;2.08;;;;;;;-0.36;87.35;94425.75;2097998;28;20029;-84
2021/03/30 04:29:39;;;;;;;6.28;2.45;;;;;;;-0.37;87.03;94429.47;2097801;28;20028;-83
2021/03/30 04:30:40;;;;;;;5.95;2.55;;;;;;;-0.35;87.62;94429.94;2097659;28;20033;-84
2021/03/30 04:31:40;;;;;;;3.33;2.50;;;;;;;-0.40;88.00;94427.47;2098012;28;20060;-81
2021/03/30 04:32:41;;;;;;;2.60;2.00;;;;;;;-0.46;88.06;94424.25;2097918;28;20043;-83
2021/03/30 04:33:41;;;;;;;6.30;2.97;;;;;;;-0.50;89.16;94428.59;2098034;28;20024;-84
2021/03/30 04:34:41;;;;;;;3.72;2.22;;;;;;;-0.47;89.41;94432.47;2097813;28;20030;-82
2021/03/30 04:35:42;;;;;;;5.05;2.20;;;;;;;-0.46;88.95;94428.75;2089282;28;20396;-82
2021/03/30 04:36:42;;;;;;;4.15;2.50;;;;;;;-0.46;89.49;94418.22;2097806;28;20158;-81
2021/03/30 04:37:43;;;;;;;4.35;2.50;;;;;;;-0.45;88.46;94430.28;2097886;28;20045;-83
2021/03/30 04:38:43;;;;;;;3.95;2.33;;;;;;;-0.45;88.56;94428.41;2097779;28;20496;-83
2021/03/30 04:39:44;;;;;;;4.13;2.50;;;;;;;-0.45;88.56;94427.66;2097926;28;20023;-82
2021/03/30 04:40:50;;;;;;;4.80;2.28;;;;;;;-0.49;88.58;94427.50;2097770;28;20519;-83
2021/03/30 04:41:50;;;;;;;5.68;2.30;;;;;;;-0.48;87.96;94434.31;2098629;28;20123;-83
2021/03/30 04:42:51;;;;;;;3.53;2.13;;;;;;;-0.48;87.61;94429.06;2097725;28;20016;-82
2021/03/30 04:43:51;;;;;;;4.43;2.65;;;;;;;-0.49;88.01;94429.34;2097811;28;20056;-83
2021/03/30 04:44:51;;;;;;;3.33;1.98;;;;;;;-0.48;87.48;94429.06;2114490;28;20066;-83
2021/03/30 04:45:52;;;;;;;4.20;2.60;;;;;;;-0.54;88.25;94430.28;2104769;28;20027;-82
2021/03/30 04:46:52;;;;;;;5.10;2.50;;;;;;;-0.52;88.15;94426.28;2089170;28;20025;-81
2021/03/30 04:47:53;;;;;;;5.00;2.22;;;;;;;-0.51;88.12;94435.69;2097411;28;20016;-83
2021/03/30 04:48:53;;;;;;;3.63;2.13;;;;;;;-0.52;88.76;94428.13;2105822;28;20024;-83
2021/03/30 04:49:53;;;;;;;3.72;2.42;;;;;;;-0.51;88.60;94438.31;2105680;28;20028;-83
2021/03/30 04:50:54;;;;;;;5.57;2.47;;;;;;;-0.47;89.38;94435.06;2097370;28;20484;-82
2021/03/30 04:51:55;;;;;;;3.67;2.70;;;;;;;-0.49;91.15;94439.84;2097337;28;20027;-83
2021/03/30 04:52:55;;;;;;;3.95;2.85;;;;;;;-0.49;91.42;94432.75;2105977;28;20042;-83
2021/03/30 04:53:56;;;;;;;4.22;2.90;;;;;;;-0.51;90.97;94440.94;2097168;28;20024;-82
2021/03/30 04:54:56;;;;;;;2.72;2.20;;;;;;;-0.52;89.79;94439.41;2088941;28;20021;-83
2021/03/30 04:55:56;;;;;;;2.40;2.20;;;;;;;-0.51;89.25;94443.56;2089378;28;20052;-84
2021/03/30 04:56:57;;;;;;;5.13;2.78;;;;;;;-0.52;89.21;94441.28;2105838;28;20020;-82
2021/03/30 04:57:57;;;;;;;5.45;2.97;;;;;;;-0.48;89.16;94442.19;2097133;28;20465;-83
2021/03/30 04:58:58;;;;;;;3.63;2.38;;;;;;;-0.46;88.95;94447.13;2097232;28;20473;-83
2021/03/30 04:59:58;;;;;;;8.23;3.10;;;;;;;-0.47;89.79;94435.84;2088943;28;20094;-83
2021/03/30 05:00:59;;;;;;;4.63;2.83;;;;;;;-0.47;90.19;94440.34;2097268;28;20032;-83
2021/03/30 05:01:59;;;;;;;5.03;2.67;;;;;;;-0.47;90.28;94443.72;2105882;28;20123;-83
2021/03/30 05:03:00;;;;;;;4.07;2.65;;;;;;;-0.48;89.25;94444.03;2088898;28;20112;-83